Gillette, WY (82716)

1:29 PM MDT on April 25, 2017 (GMT -0600)
McCann Heights, central Gillette | | Change Station
Active Advisory: Winter Weather Advisory

Elev 4590 ft 44.28 °N, 105.50 °W | Updated 11 seconds ago

Light Snow
Light Snow
29.6 °F
Feels Like 23 °F
N
7.0
Wind Variable Wind from NNW

Today
High -- | Low -- °F
--% Chance of Precip.
Yesterday
High -- | Low -- °F
Precip. -- in
Pressure 29.79 in
Visibility -9999.0 miles
Clouds Few 800 ft
Mostly Cloudy 1100 ft
Overcast 1900 ft
Windchill 23 °F
Dew Point 26 °F
Humidity 86%
Rainfall 0.45 in
Snow Depth Not available.
6:01 AM 7:59 PM
Waning Crescent, 1% visible
SPECI KGCC 251925Z AUTO 36016KT -SN FEW008 BKN011 OVC019 M02/M02 A2979 RMK AO2 P0000 T10171017
Pressure 29.79 in
Visibility -9999.0 miles
Clouds Few 800 ft
Mostly Cloudy 1100 ft
Overcast 1900 ft
Windchill 23 °F
Dew Point 26 °F
Humidity 86%
Rainfall 0.45 in
Snow Depth Not available.
6:01 AM 7:59 PM
Waning Crescent, 1% visible
SPECI KGCC 251925Z AUTO 36016KT -SN FEW008 BKN011 OVC019 M02/M02 A2979 RMK AO2 P0000 T10171017

Get Your Daily Forecast Email!

Thanks for signing up!

Be on the lookout for a verification email in your inbox.

You'll start receiving severe weather alerts in your inbox..

×

10-Day Weather Forecast

Almanac

Astronomy

Apr. 25, 2017 Rise Set
Actual Time
Civil Twilight
Nautical Twilight
Astronomical Twilight
Moon
Length of Visible Light
Length of Day
Tomorrow will be .
, % of the Moon is Illuminated

Today's Extremes

State Highs State Lows

Community

WunderPhotos

WunderBlog® & News

Nearby

Air Quality

  Air Quality AQ Index Pollutant
Not available.

Snow Depth

Station Depth Elevation

Earthquake Activity

City Distance Mag. Time & Date
Minimum magnitude displayed is 2.5.

Coastal Water Temperatures

Place Temperature

Stations

Nearby Weather Stations

Station Location Temp. Windchill Dew Point Humidity Wind Precip. Elev Updated Type
                   

Watches & Warnings

Winter Weather Advisory
Issued: 9:36 AM MDT Apr. 25, 2017 – National Weather Service

... Winter Weather Advisory remains in effect until 3 PM MDT this
afternoon...

* timing... snow will continue across much of the area through the
midday hours, tapering off during the afternoon.

* Main impact... snowfall totals of 1 to 3 inches are expected,
with the higher elevations of southern Campbell County
generally seeing the highest amounts.

* Other impacts... with many trees beginning to Leaf out, the
heavy wet snow could bring down some tree limbs.

Precautionary/preparedness actions...

A Winter Weather Advisory for snow means snow accumulation will
create hazardous conditions. Use caution when traveling.